Flight Track Log - Related Links

Times and Time Zones

All times are in EDT time to prevent confusion due to time zone crossing. See the SWA1451 flight status page for this flight to view local times or setup timezone preferences in your user account.

Time Position Orientation Groundspeed Altitude Reporting Facility
EDT Latitude Longitude Course Direction KTS MPH feet Rate Location/Type
Thu 07:28:34 AM 41.7667 -87.8000 246° West 155 178 2,900  Level Chicago TRACON
Thu 07:29:34 AM 41.7500 -87.8500 246° West 182 209 5,300 2,629 Climbing Chicago TRACON
Thu 07:30:03 AM 41.7597 -87.8894 288° West 184 212 6,800 3,933 Climbing Chicago Center
Thu 07:31:04 AM 41.7722 -87.9731 281° West 223 257 11,200 2,683 Climbing Chicago Center
Thu 07:32:06 AM 41.7836 -88.0644 280° West 246 283 12,300 1,854 Climbing Chicago Center
Thu 07:33:07 AM 41.7950 -88.1672 278° West 280 322 15,000 2,262 Climbing Chicago Center
Thu 07:34:08 AM 41.8031 -88.2781 276° West 301 346 16,900 3,024 Climbing Chicago Center
Thu 07:35:10 AM 41.7969 -88.4172 267° West 326 375 21,200 3,122 Climbing Chicago Center
Thu 07:36:11 AM 41.7767 -88.5419 258° West 343 395 23,300 2,488 Climbing Chicago Center
Thu 07:37:13 AM 41.7600 -88.6711 260° West 354 407 26,300 2,585 Climbing Chicago Center
Thu 07:38:14 AM 41.7511 -88.8081 265° West 370 426 28,600 2,164 Climbing Chicago Center
Thu 07:39:15 AM 41.7397 -88.9503 264° West 386 444 30,700 2,341 Climbing Chicago Center
Thu 07:40:17 AM 41.7281 -89.0933 264° West 390 449 33,400 2,516 Climbing Chicago Center
Thu 07:41:19 AM 41.7156 -89.2650 264° West 389 448 35,900 2,244 Climbing Chicago Center
Thu 07:42:20 AM 41.7050 -89.4056 264° West 383 441 38,000 1,770 Climbing Chicago Center
Thu 07:43:21 AM 41.6939 -89.5419 264° West 373 429 39,500 976 Climbing Chicago Center
Thu 07:44:23 AM 41.6828 -89.6817 264° West 382 440 40,000 244 Climbing Chicago Center
Thu 07:45:24 AM 41.6703 -89.8231 263° West 384 442 40,000  Level Chicago Center
Thu 07:46:26 AM 41.6586 -89.9619 264° West 380 437 40,000  Level Chicago Center
Thu 07:47:27 AM 41.6458 -90.1019 263° West 380 437 40,000  Level Chicago Center
Thu 07:48:29 AM 41.6322 -90.2683 264° West 379 436 40,000  Level Chicago Center
Thu 07:49:30 AM 41.6186 -90.4083 263° West 380 437 40,000  Level Chicago Center
Thu 07:50:32 AM 41.6056 -90.5450 263° West 374 430 40,000  Level Chicago Center
Thu 07:51:34 AM 41.5956 -90.6667 264° West 372 428 40,000  Level Chicago Center
Thu 07:52:35 AM 41.5803 -90.8283 263° West 369 425 40,000  Level Chicago Center
Thu 07:53:37 AM 41.5678 -90.9647 263° West 372 428 40,000  Level Chicago Center
Thu 07:54:38 AM 41.5547 -91.1006 263° West 371 427 40,000  Level Chicago Center
Thu 07:55:40 AM 41.5408 -91.2367 262° West 373 429 40,000  Level Chicago Center
Thu 07:56:42 AM 41.5272 -91.3731 262° West 372 428 40,000  Level Chicago Center
Thu 07:57:44 AM 41.5147 -91.5092 263° West 372 428 40,000  Level Chicago Center
Thu 07:58:45 AM 41.4969 -91.6739 262° West 375 432 40,000  Level Chicago Center
Thu 07:59:47 AM 41.4839 -91.8125 263° West 378 435 40,000  Level Chicago Center
Thu 08:00:50 AM 41.4692 -91.9517 262° West 381 438 40,000  Level Chicago Center
Thu 08:01:51 AM 41.4556 -92.0911 263° West 381 438 40,000  Level Chicago Center
Thu 08:02:54 AM 41.4386 -92.2286 261° West 382 440 40,000  Level Chicago Center
Thu 08:03:55 AM 41.4217 -92.3878 262° West 384 442 40,000  Level Chicago Center
Thu 08:04:57 AM 41.4069 -92.5286 262° West 388 447 40,000  Level Chicago Center
Thu 08:05:58 AM 41.3925 -92.6672 262° West 384 442 40,000  Level Chicago Center
Thu 08:06:22 AM 41.3892 -92.6958 261° West 383 441 40,000  Level Minneapolis Center
Thu 08:07:23 AM 41.3706 -92.8619 262° West 382 440 40,000  Level Minneapolis Center
Thu 08:08:25 AM 41.3586 -93.0019 264° West 383 441 40,000  Level Minneapolis Center
Thu 08:09:26 AM 41.3528 -93.1678 267° West 379 436 40,000  Level Minneapolis Center
Thu 08:10:27 AM 41.3458 -93.3044 266° West 376 433 40,000  Level Minneapolis Center
Thu 08:11:29 AM 41.3408 -93.4414 267° West 376 433 40,000  Level Minneapolis Center
Thu 08:12:30 AM 41.3350 -93.5753 267° West 370 426 40,000  Level Minneapolis Center
Thu 08:13:31 AM 41.3281 -93.7111 266° West 370 426 40,000  Level Minneapolis Center
Thu 08:14:33 AM 41.3206 -93.8450 266° West 369 425 40,000  Level Minneapolis Center
Thu 08:15:34 AM 41.3161 -93.9772 267° West 367 422 40,000  Level Minneapolis Center
Thu 08:16:36 AM 41.3092 -94.1408 267° West 372 428 40,000  Level Minneapolis Center
Thu 08:17:37 AM 41.3006 -94.2822 265° West 373 429 40,000  Level Minneapolis Center
Thu 08:18:39 AM 41.2936 -94.4200 266° West 374 430 40,000  Level Minneapolis Center
Thu 08:19:40 AM 41.2861 -94.5567 266° West 372 428 40,000  Level Minneapolis Center
Thu 08:20:42 AM 41.2794 -94.6933 266° West 371 427 40,000  Level Minneapolis Center
Thu 08:21:43 AM 41.2708 -94.8286 265° West 369 425 40,000  Level Minneapolis Center
Thu 08:22:45 AM 41.2631 -94.9658 266° West 371 427 40,000  Level Minneapolis Center
Thu 08:23:46 AM 41.2553 -95.1011 266° West 370 426 40,000  Level Minneapolis Center
Thu 08:24:48 AM 41.2469 -95.2378 265° West 370 426 40,000  Level Minneapolis Center
Thu 08:25:49 AM 41.2356 -95.4022 265° West 372 428 40,000  Level Minneapolis Center
Thu 08:26:51 AM 41.2261 -95.5406 265° West 375 432 40,000  Level Minneapolis Center
Thu 08:27:53 AM 41.2197 -95.6756 266° West 370 426 40,000  Level Minneapolis Center
Thu 08:29:06 AM 41.2108 -95.8133 265° West 373 429 40,000  Level Minneapolis Center
Thu 08:30:08 AM 41.1986 -95.9772 264° West 372 428 40,000  Level Minneapolis Center
Thu 08:31:10 AM 41.1903 -96.1136 265° West 370 426 40,000  Level Minneapolis Center
Thu 08:32:11 AM 41.1808 -96.2486 265° West 369 425 40,000  Level Minneapolis Center
Thu 08:33:13 AM 41.1703 -96.3928 264° West 368 423 40,000  Level Minneapolis Center
Thu 08:34:15 AM 41.1611 -96.5269 265° West 365 420 40,000  Level Minneapolis Center
Thu 08:35:17 AM 41.1506 -96.6606 264° West 365 420 40,000  Level Minneapolis Center
Thu 08:36:18 AM 41.1406 -96.7942 264° West 364 419 40,000  Level Minneapolis Center
Thu 08:37:20 AM 41.1283 -96.9542 264° West 364 419 40,000  Level Minneapolis Center
Thu 08:38:22 AM 41.1169 -97.0886 264° West 366 421 40,000  Level Minneapolis Center
Thu 08:39:24 AM 41.1069 -97.2250 264° West 369 425 40,000  Level Minneapolis Center
Thu 08:40:25 AM 41.0978 -97.3611 265° West 371 427 40,000  Level Minneapolis Center
Thu 08:41:27 AM 41.0869 -97.4886 264° West 372 428 40,000  Level Minneapolis Center
Thu 08:42:29 AM 41.1028 -97.6436 278° West 368 423 40,000  Level Minneapolis Center
Thu 08:43:31 AM 41.1711 -97.7456 312° West 369 425 40,000  Level Minneapolis Center
Thu 08:44:32 AM 41.2411 -97.8469 313° West 373 429 40,000  Level Minneapolis Center
Thu 08:45:34 AM 41.2614 -97.9708 282° West 367 422 40,000  Level Minneapolis Center
Thu 08:46:36 AM 41.2397 -98.1058 258° West 371 427 40,000  Level Minneapolis Center
Thu 08:47:38 AM 41.2178 -98.2392 258° West 370 426 40,000  Level Minneapolis Center
Thu 08:48:40 AM 41.1953 -98.3719 257° West 369 425 40,000  Level Minneapolis Center
Thu 08:49:41 AM 41.1717 -98.5147 258° West 372 428 40,000  Level Minneapolis Center
Thu 08:50:43 AM 41.1492 -98.6478 257° West 370 426 40,000 -242 Level Minneapolis Center
Thu 08:51:45 AM 41.1272 -98.7811 258° West 370 426 39,500 -823 Descending Minneapolis Center
Thu 08:52:47 AM 41.0997 -98.9375 257° West 366 421 38,300 -732 Descending Minneapolis Center
Thu 08:53:48 AM 41.0775 -99.0633 257° West 357 411 38,000 -146 Descending Minneapolis Center
Thu 08:54:50 AM 41.0550 -99.1939 257° West 351 404 38,000  Level Minneapolis Center
Thu 08:55:52 AM 41.0333 -99.3178 257° West 347 399 38,000  Level Minneapolis Center
Thu 08:56:59 AM 41.0106 -99.4417 256° West 345 397 38,000  Level Denver Center
Thu 08:58:00 AM 40.9850 -99.5883 257° West 342 394 38,000  Level Denver Center
Thu 08:59:01 AM 40.9631 -99.7106 257° West 341 392 38,000  Level Denver Center
Thu 09:00:02 AM 40.9397 -99.8333 256° West 345 397 38,000  Level Denver Center
Thu 09:01:03 AM 40.9181 -99.9511 256° West 346 398 38,000  Level Denver Center
Thu 09:02:04 AM 40.8928 -100.0906 257° West 349 402 38,000  Level Denver Center
Thu 09:03:05 AM 40.8708 -100.2097 256° West 348 400 38,000  Level Denver Center
Thu 09:04:06 AM 40.8481 -100.3300 256° West 350 403 38,000  Level Denver Center
Thu 09:05:07 AM 40.8222 -100.4686 256° West 350 403 38,000  Level Denver Center
Thu 09:06:08 AM 40.8000 -100.5886 256° West 349 402 38,000  Level Denver Center
Thu 09:07:09 AM 40.7778 -100.7064 256° West 349 402 38,000  Level Denver Center
Thu 09:08:10 AM 40.7567 -100.8347 258° West 351 404 38,000  Level Denver Center
Thu 09:09:11 AM 40.7342 -100.9744 258° West 348 400 38,000  Level Denver Center
Thu 09:10:12 AM 40.7142 -101.0936 258° West 347 399 38,000  Level Denver Center
Thu 09:11:13 AM 40.6931 -101.2136 257° West 350 403 38,000  Level Denver Center
Thu 09:12:14 AM 40.6683 -101.3547 257° West 353 406 38,000  Level Denver Center
Thu 09:13:15 AM 40.6472 -101.4747 257° West 352 405 38,000  Level Denver Center
Thu 09:14:16 AM 40.6256 -101.5953 257° West 353 406 38,000  Level Denver Center
Thu 09:15:17 AM 40.6000 -101.7369 257° West 354 407 38,000  Level Denver Center
Thu 09:16:18 AM 40.5781 -101.8578 257° West 355 409 38,000  Level Denver Center
Thu 09:17:19 AM 40.5556 -101.9783 256° West 356 410 38,000  Level Denver Center
Thu 09:18:20 AM 40.5303 -102.1203 257° West 357 411 38,000  Level Denver Center
Thu 09:19:21 AM 40.5092 -102.2400 257° West 353 406 38,000  Level Denver Center
Thu 09:20:22 AM 40.4858 -102.3625 256° West 358 412 38,000  Level Denver Center
Thu 09:21:23 AM 40.4592 -102.5039 256° West 359 413 38,000  Level Denver Center
Thu 09:22:23 AM 40.4367 -102.6267 257° West 362 417 38,000  Level Denver Center
Thu 09:23:24 AM 40.4128 -102.7564 256° West 363 418 38,000  Level Denver Center
Thu 09:24:25 AM 40.3878 -102.8867 256° West 365 420 38,000 -689 Level Denver Center
Thu 09:25:26 AM 40.3636 -103.0161 256° West 363 418 36,600 -2,361 Descending Denver Center
Thu 09:26:27 AM 40.3383 -103.1444 256° West 361 415 33,200 -3,344 Descending Denver Center
Thu 09:27:28 AM 40.3136 -103.2761 256° West 367 422 29,800 -3,049 Descending Denver Center
Thu 09:28:29 AM 40.2878 -103.4039 255° West 362 417 27,000 -2,754 Descending Denver Center
Thu 09:29:30 AM 40.2625 -103.5350 256° West 366 421 24,200 -2,705 Descending Denver Center
Thu 09:30:31 AM 40.2378 -103.6617 256° West 358 412 21,500 -2,508 Descending Denver Center
Thu 09:31:32 AM 40.2119 -103.7994 256° West 351 404 19,100 -1,525 Descending Denver Center
Thu 09:32:33 AM 40.2047 -103.9067 265° West 295 339 18,400 -984 Descending Denver Center
Thu 09:33:34 AM 40.2156 -104.0144 278° West 299 344 17,100 -1,623 Descending Denver Center
Thu 09:34:35 AM 40.2250 -104.1250 276° West 287 330 15,100 -1,778 Descending Denver Center
Thu 09:35:49 AM 40.2364 -104.2500 277° West 283 326 13,100 -1,200 Descending Denver Center
Thu 09:36:50 AM 40.2331 -104.3425 267° West 258 297 12,400 -836 Descending Denver Center
Thu 09:37:51 AM 40.2078 -104.4233 248° West 238 274 11,400 -1,131 Descending Denver Center
Thu 09:38:52 AM 40.1836 -104.5033 248° West 236 272 10,100 -1,131 Descending Denver Center
Thu 09:39:53 AM 40.1467 -104.5775 237° Southwest 242 278 9,100 -667 Descending Denver Center
Thu 09:40:40 AM 40.1000 -104.6167 213° Southwest 238 274 8,900 -449 Descending Denver TRACON
Thu 09:41:40 AM 40.0500 -104.6500 207° Southwest 217 250 8,300 -640 Descending Denver TRACON
Thu 09:41:55 AM 40.0306 -104.6603 202° Southwest 220 253 8,100 -868 Descending Denver Center
Thu 09:42:56 AM 39.9800 -104.6861 201° Southwest 196 226 7,200 -934 Descending Denver Center
Thu 09:43:57 AM 39.9325 -104.6867 181° South 168 193 6,200 -885 Descending Denver Center
Thu 09:44:58 AM 39.8936 -104.6872 181° South 131 151 5,400 -787 Descending Denver Center
Thu 09:47:00 AM 39.8617 -104.6732 North  Level Estimated
Thu 09:54:00 AM 39.8617 -104.6732 North  Level Estimated
Thu 09:55:00 AM 39.8617 -104.6732 North  Level Estimated

Login

Don't have an account? Register now (free) for customized features, flight alerts, and more!